Aviation Digital Data Service (ADDS)

Output produced by METARs form (2110 UTC 11 February 2016)
found at http://aviationweather.gov/adds/metars/
 
KFRG 112053Z 31016G29KT 10SM BKN060 OVC075 M04/M17 A2993 RMK AO2 PK WND 31030/2003 SLP137 T10391172 53019
KISP 112056Z 29024G32KT 10SM FEW030 BKN055 BKN070 M04/M18 A2991 RMK AO2 PK WND 29032/2045 SLP129 VIRGA ALQDS 6//// T10441178
KISP 112030Z 1121/1218 29019G29KT P6SM BKN060 
     FM120000 30015G23KT P6SM SKC 
     FM120600 29007KT P6SM SKC 
     FM121600 23009KT P6SM SKC
       
KJFK 112051Z 27021G29KT 10SM FEW038 SCT070 M03/M14 A2997 RMK AO2 PK WND 29033/2039 SLP148 VIRGA SW-NW VCSH NE-SE T10331144 53017 $
KJFK 112030Z 1121/1224 29022G31KT P6SM BKN060 
     FM120000 30018G27KT P6SM SKC 
     FM120800 28011KT P6SM SKC 
     FM121600 23010KT P6SM FEW040 BKN120
       
KBDR 112052Z AUTO 29024G39KT 10SM OVC070 M04/M18 A2991 RMK AO2 PK WND 30039/2050 SLP126 T10391178 53021 TSNO
KBDR 112030Z 1121/1218 29019G29KT P6SM BKN060 
     FM120000 29013G21KT P6SM SKC 
     FM120600 28007KT P6SM SKC 
     FM121600 23009KT P6SM SKC